Terminal Aerodrome Forecast
Issued by NWS Bismarck, ND

Home | Current Version | Previous Version | Text Only | Print | Product List | Glossary On
Versions: 1 2 3 4 5 6 7 8 9 10 11 12 13 14 15 16 17 18 19 20 21
000
FTUS43 KBIS 230855 AAA
TAFISN
TAF AMD
KISN 230855Z 2309/2406 26004KT P6SM OVC023
      TEMPO 2309/2311 OVC018
     FM231100 29003KT P6SM OVC015
     FM231600 36003KT P6SM OVC011
     FM240200 34005KT P6SM BKN018 OVC025=

USA.gov is the U.S. government's official web portal to all federal, state and local government web resources and services.